15 Dec 2019 17:39 UTC 2019349+17:39 UTC

Overview Datums Bench Marks Data Query Site Visit Daily QC Messages Attributes

042: Nueces Delta 2

27° 53' 19" N   97° 34' 10" W
NUDE2
The Coastal Bend Bays & Estuaries Program Coastal Bend Bays and Estuaries Program

Station Information

Nueces Delta 2
Nueces Delta 2
more pictures
 
Station Name:Nueces Delta 2
DNR ID:042
Location:27° 53' 19" N, 97° 34' 10" W

Water Level Forecasts

Latest Observations

Series Metric English Marine Observed at
Water Temperature 21.8 °C 71.2 °F 71.2 °F Dec 14 17:24 CST
00h31m ago
Salinity 29.800 psu 29.800 psu 29.800 psu Dec 14 17:24 CST
00h31m ago

Maps

Nueces Delta 2
All Stations in Area
Entire Network
 

Recent Observations

Date/Time Water
Temp (°F)
Sal (psu)
Dec 14 17:00 CST 71.4 29.800
Dec 14 16:00 CST 72.1 29.700
Dec 14 15:00 CST 72.5 29.600
Dec 14 14:00 CST 70.3 29.600
Dec 14 13:00 CST 68.7 29.600
Dec 14 12:00 CST 64.2 29.800
Dec 14 11:00 CST 62.8 29.900
Dec 14 10:00 CST 61.0 29.900
Dec 14 09:00 CST 59.9 30.000
Dec 14 08:00 CST 59.7 30.000
Dec 14 07:00 CST 60.1 30.000
Dec 14 06:00 CST 60.6 29.900
Dec 14 05:00 CST 61.2 29.800
Dec 14 04:00 CST 61.5 29.800
Dec 14 03:00 CST 61.9 29.700
Dec 14 02:00 CST 62.1 29.700
Dec 14 01:00 CST 62.6 29.500
Dec 14 00:00 CST 63.5 29.400
Dec 13 23:00 CST 64.8 29.200
Dec 13 22:00 CST 66.2 28.700
Dec 13 21:00 CST 67.8 28.400
Dec 13 20:00 CST 69.1 28.300
Dec 13 19:00 CST 69.8 28.200
Dec 13 18:00 CST 70.3 28.200
Dec 13 17:00 CST 70.5 28.200

Historical Data Availability